Time;durP1;ratioP1;P1;durP2;ratioP2;P2;SDS_P1;SDS_P2;PMS_P1;PMS_P2;Temp;Humidity;BMP_temperature;BMP_pressure;BME280_temperature;BME280_humidity;BME280_pressure;Samples;Min_cycle;Max_cycle;Signal;HPM_P1;HPM_P2
2023/09/24 00:02:19;;;;;;;1.65;1.00;;;14.40;79.50;;;;;;5068907;28;20047;-69
2023/09/24 00:04:45;;;;;;;0.98;0.98;;;14.40;79.40;;;;;;5066691;28;20013;-70
2023/09/24 00:07:12;;;;;;;3.33;1.25;;;14.40;79.40;;;;;;5064194;28;20032;-70
2023/09/24 00:09:38;;;;;;;1.63;1.02;;;14.40;79.40;;;;;;5065493;28;20075;-70
2023/09/24 00:12:04;;;;;;;0.98;0.80;;;14.30;79.30;;;;;;5067960;28;20474;-69
2023/09/24 00:14:36;;;;;;;0.77;0.73;;;14.30;79.30;;;;;;5046393;28;20071;-70
2023/09/24 00:17:03;;;;;;;2.58;1.17;;;14.30;79.30;;;;;;5067748;28;20086;-69
2023/09/24 00:19:29;;;;;;;1.17;1.08;;;14.30;79.40;;;;;;5029169;28;20407;-68
2023/09/24 00:21:55;;;;;;;1.85;0.88;;;14.20;79.30;;;;;;5063711;28;20033;-68
2023/09/24 00:24:20;;;;;;;1.35;1.08;;;14.20;79.20;;;;;;5068690;28;20044;-70
2023/09/24 00:26:46;;;;;;;1.27;1.17;;;14.20;79.30;;;;;;5065213;28;20032;-69
2023/09/24 00:29:13;;;;;;;1.05;0.73;;;14.20;79.30;;;;;;5061692;28;20033;-69
2023/09/24 00:31:38;;;;;;;0.80;0.80;;;14.10;79.10;;;;;;5072439;28;20619;-70
2023/09/24 00:34:04;;;;;;;0.98;0.90;;;14.10;79.20;;;;;;5052700;28;20032;-69
2023/09/24 00:36:32;;;;;;;0.68;0.68;;;14.10;79.20;;;;;;5065027;28;20040;-68
2023/09/24 00:38:58;;;;;;;1.63;1.08;;;14.10;79.10;;;;;;5052835;28;20028;-69
2023/09/24 00:41:24;;;;;;;0.75;0.75;;;14.00;79.10;;;;;;5069863;28;20035;-69
2023/09/24 00:43:50;;;;;;;1.13;0.98;;;14.00;79.20;;;;;;5072991;28;20033;-69
2023/09/24 00:46:16;;;;;;;1.80;1.10;;;14.00;79.20;;;;;;5054382;28;20154;-69
2023/09/24 00:48:43;;;;;;;0.98;0.98;;;14.00;79.20;;;;;;5071831;28;20040;-69
2023/09/24 00:51:22;;;;;;;0.77;0.77;;;13.90;79.10;;;;;;5068404;28;20037;-69
2023/09/24 00:53:50;;;;;;;2.83;1.13;;;13.90;79.10;;;;;;5066031;28;20021;-69
2023/09/24 00:56:15;;;;;;;5.35;1.45;;;13.90;79.10;;;;;;5047957;28;20069;-69
2023/09/24 00:58:47;;;;;;;3.53;1.35;;;13.80;79.00;;;;;;5066438;28;20614;-69
2023/09/24 01:01:14;;;;;;;0.73;0.70;;;13.80;79.00;;;;;;5067995;28;20033;-70
2023/09/24 01:03:40;;;;;;;1.60;1.13;;;13.80;79.10;;;;;;5066543;28;20029;-68
2023/09/24 01:06:06;;;;;;;2.53;1.40;;;13.70;79.00;;;;;;5072438;28;20054;-68
2023/09/24 01:08:33;;;;;;;2.47;1.10;;;13.70;79.00;;;;;;5061703;28;20036;-68
2023/09/24 01:11:00;;;;;;;1.05;0.90;;;13.70;79.00;;;;;;5066518;28;20035;-68
2023/09/24 01:13:40;;;;;;;3.15;1.27;;;13.70;78.90;;;;;;5043368;28;20398;-68
2023/09/24 01:16:07;;;;;;;2.03;1.63;;;13.70;78.90;;;;;;5069350;28;20036;-68
2023/09/24 01:18:36;;;;;;;2.22;1.58;;;13.70;78.90;;;;;;5046285;28;20026;-68
2023/09/24 01:21:07;;;;;;;3.13;1.30;;;13.60;78.80;;;;;;5065454;28;20446;-68
2023/09/24 01:23:36;;;;;;;1.85;1.20;;;13.60;78.80;;;;;;5066145;28;20037;-68
2023/09/24 01:26:03;;;;;;;1.10;0.90;;;13.60;78.90;;;;;;5067959;28;20051;-69
2023/09/24 01:28:30;;;;;;;2.80;1.27;;;13.60;78.90;;;;;;5067518;28;20086;-68
2023/09/24 01:30:56;;;;;;;1.50;1.05;;;13.50;79.50;;;;;;5068989;28;20076;-69
2023/09/24 01:33:23;;;;;;;1.60;1.35;;;13.50;78.80;;;;;;5070058;28;20032;-69
2023/09/24 01:35:49;;;;;;;1.90;1.48;;;13.50;78.80;;;;;;5065498;28;20036;-69
2023/09/24 01:38:16;;;;;;;1.88;1.38;;;13.40;78.80;;;;;;5069804;28;20039;-69
2023/09/24 01:40:42;;;;;;;3.20;1.42;;;13.40;78.90;;;;;;5067714;28;20336;-68
2023/09/24 01:43:08;;;;;;;1.92;1.48;;;13.40;79.00;;;;;;5053021;28;20130;-69
2023/09/24 01:45:40;;;;;;;1.65;1.25;;;13.40;78.90;;;;;;5065781;28;20139;-69
2023/09/24 01:48:09;;;;;;;1.45;0.73;;;13.30;78.90;;;;;;5066533;28;20027;-70
2023/09/24 01:50:36;;;;;;;3.55;1.50;;;13.30;79.00;;;;;;5063802;28;20494;-68
2023/09/24 01:53:03;;;;;;;1.70;1.08;;;13.30;79.00;;;;;;5070831;28;20021;-68
2023/09/24 01:55:29;;;;;;;1.67;1.02;;;13.30;79.00;;;;;;5061772;28;20032;-68
2023/09/24 01:57:56;;;;;;;1.33;1.13;;;13.30;79.00;;;;;;5066340;28;20063;-68
2023/09/24 02:00:34;;;;;;;1.58;1.02;;;13.30;78.90;;;;;;5069718;28;20028;-68
2023/09/24 02:03:05;;;;;;;2.28;1.42;;;13.30;79.00;;;;;;5067415;28;20054;-68
2023/09/24 02:05:35;;;;;;;3.38;1.10;;;13.20;78.90;;;;;;5060294;28;20020;-68
2023/09/24 02:08:05;;;;;;;2.30;1.17;;;13.20;79.00;;;;;;5047624;28;20029;-68
2023/09/24 02:10:31;;;;;;;2.10;1.30;;;13.20;79.00;;;;;;5069381;28;20017;-68
2023/09/24 02:12:57;;;;;;;1.42;1.00;;;13.20;78.90;;;;;;5069950;28;20035;-68
2023/09/24 02:15:25;;;;;;;2.50;1.60;;;13.20;78.90;;;;;;5051273;28;20025;-68
2023/09/24 02:17:50;;;;;;;1.63;1.35;;;13.10;78.90;;;;;;5067507;28;20065;-68
2023/09/24 02:22:56;;;;;;;1.23;0.88;;;13.10;79.00;;;;;;5047913;28;20075;-68
2023/09/24 02:25:26;;;;;;;1.48;1.25;;;13.10;79.00;;;;;;5060691;28;20122;-68
2023/09/24 02:27:52;;;;;;;2.42;1.40;;;13.10;79.10;;;;;;5062064;28;20394;-68
2023/09/24 02:30:19;;;;;;;1.17;1.10;;;13.00;79.00;;;;;;5063140;28;20032;-68
2023/09/24 02:32:46;;;;;;;3.00;1.20;;;13.00;78.90;;;;;;5066611;28;20474;-68
2023/09/24 02:35:13;;;;;;;1.65;1.35;;;13.00;78.90;;;;;;5069785;28;20031;-68
2023/09/24 02:37:40;;;;;;;1.40;0.95;;;13.00;78.90;;;;;;5069109;28;20325;-68
2023/09/24 02:40:09;;;;;;;1.38;1.27;;;13.00;79.00;;;;;;5062090;28;20042;-68
2023/09/24 02:42:34;;;;;;;1.25;1.17;;;13.00;78.90;;;;;;5064423;28;20094;-68
2023/09/24 02:45:01;;;;;;;1.30;0.93;;;12.90;78.90;;;;;;5069008;28;20074;-68
2023/09/24 02:47:27;;;;;;;1.88;1.10;;;12.90;78.90;;;;;;5049239;28;20056;-69
2023/09/24 02:49:53;;;;;;;3.17;1.85;;;12.90;78.80;;;;;;5064495;28;20020;-69
2023/09/24 02:52:19;;;;;;;1.60;1.23;;;12.90;78.80;;;;;;5064002;28;20028;-69
2023/09/24 02:54:45;;;;;;;4.20;1.48;;;12.90;78.80;;;;;;5045490;28;20028;-69
2023/09/24 02:57:11;;;;;;;1.88;1.30;;;12.80;78.80;;;;;;5051666;28;20028;-69
2023/09/24 02:59:37;;;;;;;1.45;1.02;;;12.80;78.90;;;;;;5067407;28;20037;-68
2023/09/24 03:02:02;;;;;;;1.50;1.17;;;12.80;78.90;;;;;;5065496;28;20048;-68
2023/09/24 03:04:28;;;;;;;2.78;1.20;;;12.70;78.70;;;;;;5067777;28;20123;-68
2023/09/24 03:06:54;;;;;;;3.75;1.77;;;12.70;78.80;;;;;;5051274;28;20024;-68
2023/09/24 03:09:20;;;;;;;1.23;1.05;;;12.70;78.80;;;;;;5063838;28;20382;-68
2023/09/24 03:11:45;;;;;;;1.73;1.05;;;12.70;78.80;;;;;;5068839;28;20359;-68
2023/09/24 03:14:11;;;;;;;1.58;1.30;;;12.70;78.80;;;;;;5051080;28;20037;-68
2023/09/24 03:16:40;;;;;;;1.50;1.15;;;12.60;78.70;;;;;;5054025;28;20052;-68
2023/09/24 03:19:06;;;;;;;1.98;1.42;;;12.60;78.70;;;;;;5067853;28;20040;-68
2023/09/24 03:21:31;;;;;;;1.15;1.05;;;12.60;78.70;;;;;;5063530;28;20044;-68
2023/09/24 03:23:59;;;;;;;1.88;1.33;;;12.60;78.80;;;;;;5065088;28;20028;-68
2023/09/24 03:26:25;;;;;;;2.28;1.30;;;12.50;78.80;;;;;;5062314;28;20033;-68
2023/09/24 03:28:50;;;;;;;1.40;1.10;;;12.50;78.80;;;;;;5062833;28;20738;-68
2023/09/24 03:31:17;;;;;;;1.08;1.08;;;12.50;78.90;;;;;;5062341;28;20125;-68
2023/09/24 03:33:43;;;;;;;1.73;1.27;;;12.50;78.90;;;;;;5066242;28;20097;-68
2023/09/24 03:36:10;;;;;;;2.55;1.77;;;12.50;78.80;;;;;;5066516;28;20028;-68
2023/09/24 03:38:39;;;;;;;2.13;1.20;;;12.50;78.80;;;;;;5042451;28;20052;-69
2023/09/24 03:41:04;;;;;;;1.77;1.27;;;12.40;78.70;;;;;;5050993;28;20040;-69
2023/09/24 03:43:30;;;;;;;1.33;1.15;;;12.40;78.70;;;;;;5065777;28;20133;-69
2023/09/24 03:45:56;;;;;;;1.60;1.20;;;12.30;78.70;;;;;;5044659;28;20107;-69
2023/09/24 03:48:23;;;;;;;1.60;1.13;;;12.30;78.80;;;;;;5064969;28;20044;-69
2023/09/24 03:50:49;;;;;;;1.95;1.75;;;12.30;78.80;;;;;;5047297;28;20024;-69
2023/09/24 03:53:19;;;;;;;2.33;1.27;;;12.30;78.90;;;;;;5047390;28;20101;-69
2023/09/24 03:55:47;;;;;;;2.35;1.58;;;12.30;78.90;;;;;;5022793;28;20059;-69
2023/09/24 03:58:14;;;;;;;2.33;1.40;;;12.30;78.90;;;;;;5067381;28;20024;-69
2023/09/24 04:00:41;;;;;;;1.00;1.00;;;12.30;78.90;;;;;;5065035;28;20039;-68
2023/09/24 04:03:09;;;;;;;1.75;1.00;;;12.30;78.90;;;;;;5064935;28;20134;-68
2023/09/24 04:05:38;;;;;;;2.90;1.42;;;12.30;78.80;;;;;;5046485;28;20516;-68
2023/09/24 04:08:04;;;;;;;1.67;1.52;;;12.30;78.80;;;;;;5030500;28;20067;-68
2023/09/24 04:10:30;;;;;;;1.35;1.25;;;12.20;78.70;;;;;;5068714;28;20056;-68
2023/09/24 04:13:00;;;;;;;2.80;1.30;;;12.20;78.70;;;;;;5066079;28;20028;-68
2023/09/24 04:15:27;;;;;;;1.17;1.08;;;12.20;78.80;;;;;;5064603;28;20620;-68
2023/09/24 04:17:57;;;;;;;3.50;1.15;;;12.20;78.90;;;;;;5065762;28;20123;-68
2023/09/24 04:20:25;;;;;;;1.35;1.10;;;12.10;78.90;;;;;;5062202;28;20037;-69
2023/09/24 04:22:51;;;;;;;4.45;1.30;;;12.10;78.90;;;;;;5065212;28;20033;-70
2023/09/24 04:25:20;;;;;;;1.95;1.30;;;12.10;78.80;;;;;;5063472;28;20022;-68
2023/09/24 04:27:46;;;;;;;4.57;1.42;;;12.10;78.80;;;;;;5065183;28;20056;-69
2023/09/24 04:30:19;;;;;;;2.88;1.42;;;12.10;78.80;;;;;;5063370;28;20506;-68
2023/09/24 04:32:48;;;;;;;4.22;1.63;;;12.10;78.90;;;;;;5065830;28;20055;-68
2023/09/24 04:35:16;;;;;;;2.05;1.10;;;12.10;78.90;;;;;;5059208;28;20042;-69
2023/09/24 04:37:42;;;;;;;2.80;1.65;;;12.10;78.80;;;;;;5062173;28;20078;-69
2023/09/24 04:40:14;;;;;;;1.30;1.20;;;12.00;78.70;;;;;;5066234;28;20997;-67
2023/09/24 04:42:44;;;;;;;1.25;0.90;;;12.00;79.30;;;;;;5064511;28;20036;-68
2023/09/24 04:45:11;;;;;;;2.65;1.75;;;12.00;78.80;;;;;;5063297;28;20061;-68
2023/09/24 04:47:40;;;;;;;1.83;1.40;;;12.00;78.80;;;;;;5040050;28;20037;-68
2023/09/24 04:50:07;;;;;;;1.50;1.40;;;11.90;78.80;;;;;;5063277;28;20386;-69
2023/09/24 04:52:34;;;;;;;1.52;1.25;;;11.90;78.90;;;;;;5063710;28;20040;-69
2023/09/24 04:55:01;;;;;;;4.10;1.42;;;11.80;78.80;;;;;;5035592;28;20036;-69
2023/09/24 04:57:27;;;;;;;2.50;1.33;;;11.80;78.80;;;;;;5051241;28;20036;-69
2023/09/24 04:59:58;;;;;;;1.50;0.98;;;11.90;78.80;;;;;;5069038;28;20028;-69
2023/09/24 05:02:23;;;;;;;1.70;1.40;;;11.90;78.80;;;;;;5052150;28;20040;-70
2023/09/24 05:04:49;;;;;;;1.45;1.35;;;11.80;78.80;;;;;;5045303;28;20029;-69
2023/09/24 05:07:16;;;;;;;1.25;1.15;;;11.80;78.70;;;;;;5066366;28;20036;-70
2023/09/24 05:09:42;;;;;;;1.08;1.00;;;11.80;78.80;;;;;;5064787;28;20083;-70
2023/09/24 05:12:08;;;;;;;1.80;1.13;;;11.80;78.70;;;;;;5065258;28;20539;-69
2023/09/24 05:14:34;;;;;;;2.22;1.40;;;11.80;78.70;;;;;;5066459;28;20056;-70
2023/09/24 05:17:00;;;;;;;1.58;1.25;;;11.80;78.70;;;;;;5065828;28;20146;-70
2023/09/24 05:19:26;;;;;;;2.17;1.63;;;11.80;78.70;;;;;;5070804;28;20120;-70
2023/09/24 05:21:52;;;;;;;3.33;1.73;;;11.80;78.80;;;;;;5067933;28;20049;-70
2023/09/24 05:24:18;;;;;;;1.30;0.90;;;11.80;78.70;;;;;;5054825;28;20060;-69
2023/09/24 05:26:44;;;;;;;1.38;1.27;;;11.80;78.70;;;;;;5054014;28;20483;-70
2023/09/24 05:29:10;;;;;;;2.13;1.45;;;11.70;78.60;;;;;;5069179;28;20124;-70
2023/09/24 05:31:36;;;;;;;1.02;0.93;;;11.70;78.60;;;;;;5066385;28;20127;-70
2023/09/24 05:34:04;;;;;;;2.20;1.55;;;11.70;78.70;;;;;;5051662;28;20031;-70
2023/09/24 05:36:30;;;;;;;2.33;1.65;;;11.70;78.80;;;;;;5049202;28;20029;-69
2023/09/24 05:38:56;;;;;;;3.17;1.48;;;11.70;78.80;;;;;;5041968;28;20024;-70
2023/09/24 05:41:23;;;;;;;4.22;1.70;;;11.70;78.80;;;;;;5065918;28;20028;-70
2023/09/24 05:43:48;;;;;;;1.65;1.15;;;11.70;78.90;;;;;;5065330;28;20047;-68
2023/09/24 05:46:14;;;;;;;2.28;1.40;;;11.70;78.90;;;;;;5060718;28;20033;-69
2023/09/24 05:48:41;;;;;;;2.50;1.35;;;11.70;78.80;;;;;;5070111;28;20044;-68
2023/09/24 05:51:07;;;;;;;2.25;1.80;;;11.70;78.80;;;;;;5070416;28;20029;-68
2023/09/24 05:53:33;;;;;;;2.05;1.60;;;11.70;78.90;;;;;;5062131;28;20029;-68
2023/09/24 05:56:00;;;;;;;2.25;1.75;;;11.70;78.80;;;;;;5067998;28;20117;-68
2023/09/24 05:58:26;;;;;;;3.05;1.27;;;11.70;78.90;;;;;;5070073;28;20465;-69
2023/09/24 06:00:55;;;;;;;2.05;1.63;;;11.70;78.90;;;;;;5051441;28;20128;-69
2023/09/24 06:03:20;;;;;;;1.40;1.30;;;11.80;78.90;;;;;;5046156;28;20033;-68
2023/09/24 06:05:46;;;;;;;2.50;1.50;;;11.80;79.00;;;;;;5052248;28;20402;-68
2023/09/24 06:08:12;;;;;;;2.78;1.52;;;11.80;79.10;;;;;;5069531;28;20033;-68
2023/09/24 06:10:47;;;;;;;2.78;1.48;;;11.90;79.80;;;;;;5069257;28;20020;-68
2023/09/24 06:13:15;;;;;;;1.83;1.52;;;11.90;79.20;;;;;;5047498;28;20029;-70
2023/09/24 06:15:41;;;;;;;2.92;1.63;;;11.90;79.20;;;;;;5063592;28;20038;-69
2023/09/24 06:18:07;;;;;;;1.80;1.33;;;11.90;79.30;;;;;;5061593;28;20060;-68
2023/09/24 06:20:37;;;;;;;2.33;1.52;;;11.90;79.40;;;;;;5063044;28;20051;-69
2023/09/24 06:23:03;;;;;;;2.03;1.77;;;12.00;79.50;;;;;;5064674;28;20025;-70
2023/09/24 06:25:29;;;;;;;2.92;1.48;;;12.00;79.50;;;;;;5068080;28;20048;-70
2023/09/24 06:27:54;;;;;;;1.95;1.58;;;12.10;79.60;;;;;;5062084;28;20083;-69
2023/09/24 06:30:20;;;;;;;2.15;1.88;;;12.10;79.70;;;;;;5070442;28;20106;-69
2023/09/24 06:32:46;;;;;;;1.52;1.05;;;12.20;79.80;;;;;;5051182;28;20040;-69
2023/09/24 06:35:12;;;;;;;5.32;2.35;;;12.30;79.80;;;;;;5068240;28;20025;-69
2023/09/24 06:37:37;;;;;;;4.55;1.63;;;12.40;79.80;;;;;;5029578;28;20403;-70
2023/09/24 06:40:03;;;;;;;15.48;1.83;;;12.50;79.90;;;;;;5068128;28;20032;-69
2023/09/24 06:42:29;;;;;;;2.78;1.88;;;12.60;80.00;;;;;;5070824;28;20020;-70
2023/09/24 06:44:55;;;;;;;2.55;1.67;;;12.60;80.10;;;;;;5055568;28;20391;-70
2023/09/24 06:47:20;;;;;;;3.35;2.05;;;12.70;80.20;;;;;;5052794;28;20056;-69
2023/09/24 06:49:50;;;;;;;3.03;1.98;;;12.80;80.30;;;;;;5068217;28;20100;-70
2023/09/24 06:52:16;;;;;;;4.15;2.22;;;12.90;80.40;;;;;;5060758;28;20052;-70
2023/09/24 06:54:41;;;;;;;2.38;1.75;;;13.00;80.70;;;;;;5066945;28;20028;-69
2023/09/24 06:57:07;;;;;;;2.67;2.28;;;13.00;80.70;;;;;;5065308;28;20391;-69
2023/09/24 06:59:33;;;;;;;2.30;1.92;;;13.00;80.70;;;;;;5067904;28;20049;-68
2023/09/24 07:01:58;;;;;;;2.90;1.83;;;13.10;80.90;;;;;;5049627;28;20186;-69
2023/09/24 07:04:24;;;;;;;2.08;1.70;;;13.10;80.90;;;;;;5068120;28;20032;-68
2023/09/24 07:06:53;;;;;;;3.70;2.22;;;13.20;80.80;;;;;;5069225;28;20493;-69
2023/09/24 07:09:19;;;;;;;2.38;1.77;;;13.20;80.90;;;;;;5067633;28;20501;-69
2023/09/24 07:11:44;;;;;;;1.95;1.45;;;13.30;81.00;;;;;;5053747;28;20048;-69
2023/09/24 07:14:10;;;;;;;2.17;1.73;;;13.30;81.00;;;;;;5063688;28;20449;-68
2023/09/24 07:16:36;;;;;;;2.25;2.05;;;13.40;81.00;;;;;;5068907;28;20051;-69
2023/09/24 07:19:02;;;;;;;2.50;1.35;;;13.50;81.00;;;;;;5050342;28;20067;-68
2023/09/24 07:21:30;;;;;;;3.05;1.33;;;13.50;80.90;;;;;;5059720;28;20024;-69
2023/09/24 07:24:02;;;;;;;1.48;1.27;;;13.60;80.80;;;;;;5062585;28;20029;-68
2023/09/24 07:26:28;;;;;;;2.10;1.45;;;13.70;80.70;;;;;;5065429;28;20028;-68
2023/09/24 07:28:54;;;;;;;2.90;1.67;;;13.70;80.70;;;;;;5067173;28;20044;-69
2023/09/24 07:31:22;;;;;;;2.60;1.73;;;13.70;80.80;;;;;;5064034;28;20521;-68
2023/09/24 07:33:48;;;;;;;1.73;1.60;;;13.80;80.90;;;;;;5065928;28;20024;-69
2023/09/24 07:36:14;;;;;;;1.70;1.48;;;13.80;81.00;;;;;;5063899;28;20060;-69
2023/09/24 07:38:40;;;;;;;2.53;1.80;;;13.80;81.00;;;;;;5029510;28;20047;-69
2023/09/24 07:41:09;;;;;;;3.47;2.33;;;13.90;80.90;;;;;;5063948;28;20021;-69
2023/09/24 07:43:44;;;;;;;2.45;1.65;;;13.90;80.90;;;;;;5060845;28;20036;-69
2023/09/24 07:46:12;;;;;;;2.33;1.83;;;13.90;81.20;;;;;;5067207;28;20403;-70
2023/09/24 07:48:39;;;;;;;2.15;1.95;;;13.90;81.40;;;;;;5066982;28;20028;-69
2023/09/24 07:51:17;;;;;;;4.80;2.17;;;14.00;81.50;;;;;;5064371;28;20091;-71
2023/09/24 07:53:44;;;;;;;1.90;1.52;;;14.00;81.50;;;;;;5066017;28;20063;-73
2023/09/24 07:56:10;;;;;;;1.98;1.50;;;14.10;81.40;;;;;;5050292;28;20024;-70
2023/09/24 07:58:38;;;;;;;2.40;1.70;;;14.20;81.50;;;;;;5054717;28;20622;-70
2023/09/24 08:01:12;;;;;;;2.53;1.70;;;14.30;81.30;;;;;;5065130;28;20406;-68
2023/09/24 08:03:39;;;;;;;1.95;1.42;;;14.30;81.20;;;;;;5060548;28;20052;-69
2023/09/24 08:06:05;;;;;;;2.05;1.77;;;14.40;81.20;;;;;;5067167;28;20033;-70
2023/09/24 08:08:34;;;;;;;2.25;1.50;;;14.40;81.00;;;;;;5050360;28;20032;-67
2023/09/24 08:11:01;;;;;;;2.47;1.75;;;14.50;81.00;;;;;;5051700;28;20108;-68
2023/09/24 08:13:33;;;;;;;2.38;1.10;;;14.60;81.10;;;;;;5061820;28;20035;-68
2023/09/24 08:15:58;;;;;;;2.20;1.45;;;14.70;81.00;;;;;;5064198;28;20064;-70
2023/09/24 08:18:25;;;;;;;3.80;1.77;;;14.70;80.80;;;;;;5065273;28;20127;-68
2023/09/24 08:20:53;;;;;;;1.38;1.23;;;14.80;80.70;;;;;;5059617;28;20020;-70
2023/09/24 08:23:25;;;;;;;2.50;1.38;;;14.90;80.80;;;;;;5062272;28;20128;-70
2023/09/24 08:25:51;;;;;;;1.23;1.10;;;14.90;80.70;;;;;;5062744;28;20100;-70
2023/09/24 08:28:20;;;;;;;2.33;1.85;;;15.00;80.70;;;;;;5064492;28;20064;-69
2023/09/24 08:30:46;;;;;;;1.77;1.48;;;15.10;80.60;;;;;;5051981;28;20458;-70
2023/09/24 08:33:12;;;;;;;1.17;1.05;;;15.20;80.50;;;;;;5064222;28;20036;-70
2023/09/24 08:35:42;;;;;;;2.45;1.33;;;15.30;80.30;;;;;;5062084;28;20082;-69
2023/09/24 08:38:08;;;;;;;1.85;1.30;;;15.40;80.20;;;;;;5064579;28;20102;-67
2023/09/24 08:40:42;;;;;;;2.00;1.15;;;15.50;80.20;;;;;;5050065;28;20485;-73
2023/09/24 08:43:19;;;;;;;3.20;1.30;;;15.60;79.90;;;;;;5058166;28;20426;-66
2023/09/24 08:45:44;;;;;;;2.33;1.33;;;15.70;79.70;;;;;;5045143;28;20105;-67
2023/09/24 08:48:11;;;;;;;2.38;1.00;;;15.80;79.50;;;;;;5060740;28;20040;-74
2023/09/24 08:50:43;;;;;;;1.35;0.93;;;16.00;79.40;;;;;;5062287;28;20036;-74
2023/09/24 08:53:15;;;;;;;2.15;1.33;;;16.10;79.00;;;;;;5071898;28;20028;-75
2023/09/24 08:55:46;;;;;;;2.25;1.55;;;16.20;78.90;;;;;;5072974;28;20055;-80
2023/09/24 08:58:12;;;;;;;2.00;1.75;;;16.30;78.60;;;;;;5063839;28;20399;-72
2023/09/24 09:00:44;;;;;;;1.50;1.27;;;16.30;78.30;;;;;;5071602;28;20043;-69
2023/09/24 09:03:10;;;;;;;2.15;1.00;;;16.40;78.20;;;;;;5063179;28;20020;-71
2023/09/24 09:05:56;;;;;;;1.63;0.88;;;16.60;78.10;;;;;;5059863;28;20074;-68
2023/09/24 09:08:22;;;;;;;1.13;0.93;;;16.70;77.80;;;;;;5063130;28;20029;-71
2023/09/24 09:10:49;;;;;;;1.30;1.20;;;16.90;77.50;;;;;;5066080;28;20036;-70
2023/09/24 09:13:20;;;;;;;1.42;1.20;;;17.00;76.80;;;;;;5066424;28;20074;-75
2023/09/24 09:15:47;;;;;;;4.35;1.33;;;17.10;76.30;;;;;;5060615;28;20107;-79
2023/09/24 09:18:39;;;;;;;1.08;0.82;;;17.10;75.90;;;;;;5067505;28;20375;-67
2023/09/24 09:21:04;;;;;;;2.55;1.30;;;17.30;76.00;;;;;;5045945;28;20538;-68
2023/09/24 09:23:36;;;;;;;1.00;0.93;;;17.40;76.00;;;;;;5049731;28;20052;-66
2023/09/24 09:26:02;;;;;;;4.15;1.45;;;17.60;75.70;;;;;;5067254;28;20036;-67
2023/09/24 09:28:31;;;;;;;1.70;1.27;;;17.70;75.50;;;;;;5065541;28;21184;-69
2023/09/24 09:31:04;;;;;;;1.10;1.00;;;17.90;75.40;;;;;;5065953;28;20462;-70
2023/09/24 09:33:35;;;;;;;1.83;1.05;;;18.00;75.20;;;;;;5061039;28;20056;-69
2023/09/24 09:36:02;;;;;;;6.68;1.02;;;18.10;75.10;;;;;;5063436;28;20037;-69
2023/09/24 09:38:28;;;;;;;1.70;1.23;;;18.30;74.90;;;;;;5048130;28;20453;-68
2023/09/24 09:40:59;;;;;;;1.40;1.00;;;18.40;73.40;;;;;;5066070;28;20028;-68
2023/09/24 09:43:26;;;;;;;5.32;1.25;;;18.60;73.60;;;;;;5064582;28;20029;-69
2023/09/24 09:45:55;;;;;;;2.13;0.90;;;18.60;72.40;;;;;;5067153;28;20028;-71
2023/09/24 09:48:29;;;;;;;4.72;1.58;;;18.70;72.40;;;;;;5068282;28;20054;-68
2023/09/24 09:51:02;;;;;;;2.58;1.13;;;18.90;71.30;;;;;;5057110;28;20082;-69
2023/09/24 09:53:36;;;;;;;2.08;0.80;;;19.00;71.40;;;;;;5061486;28;20050;-70
2023/09/24 09:56:04;;;;;;;0.98;0.88;;;19.10;71.30;;;;;;5069353;28;20029;-68
2023/09/24 09:58:34;;;;;;;1.25;1.15;;;19.20;70.80;;;;;;5063153;28;20036;-70
2023/09/24 10:01:02;;;;;;;1.48;0.80;;;19.30;70.20;;;;;;5045034;28;20031;-67
2023/09/24 10:03:29;;;;;;;1.38;0.60;;;19.40;69.60;;;;;;5060912;28;20486;-70
2023/09/24 10:05:57;;;;;;;0.73;0.68;;;19.60;69.30;;;;;;5063454;28;20386;-69
2023/09/24 10:08:43;;;;;;;2.75;0.95;;;19.70;68.80;;;;;;5067610;28;20067;-69
2023/09/24 10:11:11;;;;;;;2.85;1.05;;;19.80;68.60;;;;;;5063033;28;20028;-70
2023/09/24 10:13:43;;;;;;;1.00;0.82;;;19.90;67.50;;;;;;5060484;28;20033;-70
2023/09/24 10:16:30;;;;;;;7.15;0.88;;;20.10;67.00;;;;;;5062566;28;20028;-68
2023/09/24 10:19:01;;;;;;;0.75;0.70;;;20.20;66.20;;;;;;5059208;28;20029;-69
2023/09/24 10:21:31;;;;;;;0.60;0.60;;;20.20;66.20;;;;;;5066192;28;20033;-71
2023/09/24 10:23:58;;;;;;;0.63;0.60;;;20.20;65.40;;;;;;5065832;28;20493;-69
2023/09/24 10:27:05;;;;;;;0.60;0.57;;;20.30;66.00;;;;;;5043571;28;20485;-67
2023/09/24 10:29:45;;;;;;;1.42;0.95;;;20.40;65.60;;;;;;5063892;28;20068;-70
2023/09/24 10:32:17;;;;;;;2.03;0.77;;;20.40;64.70;;;;;;5061707;28;20119;-66
2023/09/24 10:34:54;;;;;;;2.05;0.90;;;20.50;64.20;;;;;;5056027;28;20043;-70
2023/09/24 10:37:34;;;;;;;1.02;0.70;;;20.50;63.90;;;;;;5044327;28;20036;-72
2023/09/24 10:40:05;;;;;;;0.88;0.73;;;20.60;64.00;;;;;;5044253;28;20029;-69
2023/09/24 10:42:33;;;;;;;0.95;0.60;;;20.80;64.50;;;;;;5061070;28;20020;-69
2023/09/24 10:45:08;;;;;;;0.77;0.60;;;21.00;63.70;;;;;;5060992;28;20029;-68
2023/09/24 10:47:46;;;;;;;1.95;0.88;;;21.10;63.80;;;;;;5058678;28;20768;-69
2023/09/24 10:50:19;;;;;;;0.88;0.60;;;21.30;64.30;;;;;;5053167;28;20087;-69
2023/09/24 10:52:46;;;;;;;0.60;0.60;;;21.50;63.60;;;;;;5048059;28;20692;-69
2023/09/24 10:55:11;;;;;;;2.70;1.15;;;21.80;63.60;;;;;;5059835;28;20464;-68
2023/09/24 10:57:37;;;;;;;1.45;0.80;;;21.80;62.60;;;;;;5059118;28;20048;-68
2023/09/24 11:00:04;;;;;;;1.10;1.00;;;21.90;60.90;;;;;;5059588;28;20029;-70
2023/09/24 11:02:30;;;;;;;4.03;1.15;;;21.90;59.80;;;;;;5055991;28;20024;-70
2023/09/24 11:05:01;;;;;;;3.55;0.95;;;21.90;60.50;;;;;;5057138;28;20025;-67
2023/09/24 11:07:27;;;;;;;3.28;1.23;;;21.90;58.50;;;;;;5057692;28;20058;-68
2023/09/24 11:09:53;;;;;;;1.45;1.00;;;21.90;59.60;;;;;;5059261;28;20505;-68
2023/09/24 11:12:20;;;;;;;0.63;0.60;;;22.00;58.90;;;;;;5054751;28;20429;-68
2023/09/24 11:14:53;;;;;;;1.15;0.80;;;22.10;58.40;;;;;;5026969;28;20024;-68
2023/09/24 11:17:19;;;;;;;1.27;0.85;;;22.20;58.50;;;;;;5062216;28;20557;-68
2023/09/24 11:19:47;;;;;;;0.70;0.70;;;22.40;57.70;;;;;;5054960;28;20111;-68
2023/09/24 11:22:26;;;;;;;1.00;0.85;;;22.40;56.90;;;;;;5056218;28;20052;-68
2023/09/24 11:25:09;;;;;;;0.80;0.70;;;22.50;58.50;;;;;;5060105;28;20032;-66
2023/09/24 11:27:47;;;;;;;0.50;0.45;;;22.80;57.10;;;;;;5041697;28;20124;-70
2023/09/24 11:30:17;;;;;;;0.70;0.70;;;22.90;56.30;;;;;;5056351;28;20119;-69
2023/09/24 11:32:45;;;;;;;1.00;0.85;;;23.10;56.80;;;;;;5058383;28;20041;-70
2023/09/24 11:35:15;;;;;;;0.70;0.38;;;23.10;55.80;;;;;;5060090;28;20028;-71
2023/09/24 11:37:46;;;;;;;1.85;0.50;;;23.20;56.20;;;;;;5058324;28;20425;-70
2023/09/24 11:40:25;;;;;;;0.98;0.57;;;23.30;55.70;;;;;;5059277;28;20017;-69
2023/09/24 11:43:00;;;;;;;0.73;0.73;;;23.30;56.00;;;;;;5064971;28;20040;-72
2023/09/24 11:45:48;;;;;;;2.40;0.75;;;23.30;55.90;;;;;;5057570;28;20021;-70
2023/09/24 11:48:14;;;;;;;0.77;0.50;;;23.20;53.90;;;;;;5041751;28;20827;-70
2023/09/24 11:50:47;;;;;;;0.75;0.50;;;23.30;54.60;;;;;;5061258;28;20044;-69
2023/09/24 11:53:14;;;;;;;2.38;1.05;;;23.40;55.70;;;;;;5056478;28;20475;-70
2023/09/24 11:55:41;;;;;;;1.45;0.88;;;23.50;54.20;;;;;;5057253;28;20036;-70
2023/09/24 11:58:07;;;;;;;0.80;0.60;;;23.50;53.40;;;;;;5060730;28;20023;-70
2023/09/24 12:00:35;;;;;;;1.05;0.60;;;23.70;54.50;;;;;;5058111;28;20024;-69
2023/09/24 12:03:01;;;;;;;0.70;0.70;;;23.80;53.30;;;;;;5064568;28;20021;-69
2023/09/24 12:05:36;;;;;;;0.85;0.85;;;23.80;52.40;;;;;;5041973;28;20033;-70
2023/09/24 12:08:03;;;;;;;1.85;0.82;;;23.60;52.00;;;;;;5040780;28;20056;-70
2023/09/24 12:10:30;;;;;;;1.02;0.93;;;23.40;52.30;;;;;;5055666;28;20101;-69
2023/09/24 12:13:02;;;;;;;1.65;1.02;;;23.30;53.10;;;;;;5063857;28;20021;-69
2023/09/24 12:15:31;;;;;;;;;;;23.10;53.30;;;;;;5061915;28;20052;-68
2023/09/24 12:17:58;;;;;;;0.95;0.50;;;23.20;54.00;;;;;;5056747;28;20404;-69
2023/09/24 12:20:28;;;;;;;0.45;0.45;;;23.30;52.70;;;;;;5057631;28;20013;-70
2023/09/24 12:22:54;;;;;;;0.50;0.50;;;23.30;52.50;;;;;;5055652;28;20495;-69
2023/09/24 12:25:20;;;;;;;0.30;0.30;;;23.40;53.30;;;;;;5056512;28;20044;-68
2023/09/24 12:27:46;;;;;;;0.73;0.73;;;23.50;53.30;;;;;;5062547;28;20407;-69
2023/09/24 12:30:12;;;;;;;2.08;0.50;;;23.70;53.00;;;;;;5046155;28;20033;-68
2023/09/24 12:32:42;;;;;;;2.20;0.68;;;23.70;50.60;;;;;;5044857;28;20036;-67
2023/09/24 12:35:11;;;;;;;0.40;0.40;;;23.50;51.40;;;;;;5064615;28;20032;-67
2023/09/24 12:37:37;;;;;;;0.60;0.60;;;23.50;52.20;;;;;;5067769;28;20260;-69
2023/09/24 12:40:10;;;;;;;0.93;0.75;;;23.60;52.10;;;;;;5061268;28;20028;-72
2023/09/24 12:42:37;;;;;;;0.50;0.50;;;23.80;52.00;;;;;;5066887;28;20028;-71
2023/09/24 12:45:04;;;;;;;1.05;0.88;;;23.90;50.80;;;;;;5063667;28;20036;-70
2023/09/24 12:47:32;;;;;;;2.10;0.70;;;23.90;50.10;;;;;;5046665;28;20759;-70
2023/09/24 12:50:06;;;;;;;2.00;0.77;;;23.80;50.70;;;;;;5063072;28;20029;-69
2023/09/24 12:52:44;;;;;;;0.55;0.55;;;23.60;50.00;;;;;;5059132;28;20499;-67
2023/09/24 12:55:11;;;;;;;0.50;0.50;;;23.60;51.80;;;;;;5062166;28;20112;-66
2023/09/24 12:57:38;;;;;;;0.60;0.60;;;23.70;51.50;;;;;;5062053;28;20028;-70